Time;durP1;ratioP1;P1;durP2;ratioP2;P2;SDS_P1;SDS_P2;PMS_P1;PMS_P2;Temp;Humidity;BMP_temperature;BMP_pressure;BME280_temperature;BME280_humidity;BME280_pressure;Samples;Min_cycle;Max_cycle;Signal;HPM_P1;HPM_P2
2021/12/28 00:00:40;;;;;;;29.83;21.17;;;;;;;3.88;100.00;99512.66;4908726;28;20051;-73
2021/12/28 00:03:05;;;;;;;30.10;21.67;;;;;;;3.91;100.00;99508.78;4928067;28;20588;-73
2021/12/28 00:05:31;;;;;;;30.90;20.25;;;;;;;3.93;100.00;99504.91;4928059;28;20039;-73
2021/12/28 00:07:56;;;;;;;30.30;20.25;;;;;;;3.93;100.00;99507.56;4909628;28;20138;-73
2021/12/28 00:10:22;;;;;;;34.13;20.42;;;;;;;3.94;100.00;99501.19;4928961;28;20130;-73
2021/12/28 00:12:48;;;;;;;29.30;20.30;;;;;;;3.89;100.00;99492.97;4912696;28;20051;-73
2021/12/28 00:18:04;;;;;;;36.38;21.23;;;;;;;3.89;100.00;99484.16;4924782;28;20471;-73
2021/12/28 00:20:32;;;;;;;32.20;20.45;;;;;;;3.94;100.00;99489.72;4917063;28;20055;-73
2021/12/28 00:22:58;;;;;;;34.83;22.35;;;;;;;3.96;100.00;99493.81;4927066;28;20035;-73
2021/12/28 00:25:24;;;;;;;29.50;20.55;;;;;;;4.01;100.00;99491.38;4910500;28;20106;-73
2021/12/28 00:27:49;;;;;;;31.75;21.77;;;;;;;4.01;100.00;99491.38;4926847;28;22626;-73
2021/12/28 00:30:15;;;;;;;28.25;21.95;;;;;;;4.01;100.00;99496.69;4920392;28;20177;-73
2021/12/28 00:32:41;;;;;;;27.17;20.13;;;;;;;3.97;100.00;99495.47;4916989;28;21134;-73
2021/12/28 00:35:07;;;;;;;29.00;21.27;;;;;;;4.00;100.00;99495.06;4928383;28;21295;-73
2021/12/28 00:37:32;;;;;;;29.77;22.67;;;;;;;4.02;100.00;99493.00;4896385;28;20058;-73
2021/12/28 00:39:58;;;;;;;32.30;21.60;;;;;;;3.97;100.00;99490.13;4941607;28;20110;-73
2021/12/28 00:42:23;;;;;;;33.20;22.85;;;;;;;4.04;100.00;99488.31;4921115;28;20074;-73
2021/12/28 00:44:49;;;;;;;29.58;21.63;;;;;;;4.03;100.00;99489.31;4915084;28;20070;-73
2021/12/28 00:47:14;;;;;;;33.25;21.92;;;;;;;3.96;100.00;99487.66;4926000;28;20045;-73
2021/12/28 00:49:40;;;;;;;32.17;22.13;;;;;;;3.95;100.00;99486.84;4911503;28;20407;-72
2021/12/28 00:52:06;;;;;;;28.75;21.38;;;;;;;3.97;100.00;99484.00;4926332;28;20487;-72
2021/12/28 00:54:31;;;;;;;33.75;21.38;;;;;;;3.98;100.00;99486.44;4890032;28;20047;-73
2021/12/28 00:56:57;;;;;;;31.63;23.15;;;;;;;3.99;100.00;99482.75;4915229;28;20455;-73
2021/12/28 00:59:22;;;;;;;36.88;24.23;;;;;;;3.98;100.00;99486.44;4927275;28;20039;-73
2021/12/28 01:01:48;;;;;;;36.60;24.38;;;;;;;4.02;100.00;99484.19;4909432;28;20061;-73
2021/12/28 01:04:14;;;;;;;36.20;24.23;;;;;;;4.04;100.00;99482.16;4925750;28;20037;-72
2021/12/28 01:06:40;;;;;;;40.92;26.23;;;;;;;4.01;100.00;99486.03;4918255;28;20636;-73
2021/12/28 01:09:05;;;;;;;38.72;27.20;;;;;;;4.10;100.00;99486.66;4900766;28;20050;-73
2021/12/28 01:11:31;;;;;;;38.22;26.00;;;;;;;4.06;100.00;99482.75;4926582;28;20050;-73
2021/12/28 01:13:56;;;;;;;42.13;28.30;;;;;;;4.03;100.00;99488.50;4895693;28;20046;-73
2021/12/28 01:16:21;;;;;;;41.22;27.15;;;;;;;4.05;100.00;99483.78;4925725;28;20046;-73
2021/12/28 01:18:47;;;;;;;40.33;26.23;;;;;;;3.98;100.00;99482.97;4922220;28;20062;-73
2021/12/28 01:21:12;;;;;;;41.78;27.73;;;;;;;4.00;100.00;99489.75;4915437;28;20055;-74
2021/12/28 01:23:38;;;;;;;39.85;27.85;;;;;;;4.03;100.00;99488.50;4925614;28;20041;-74
2021/12/28 01:26:04;;;;;;;45.63;28.15;;;;;;;4.02;100.00;99492.19;4911695;28;20585;-73
2021/12/28 01:28:29;;;;;;;44.22;28.65;;;;;;;4.01;100.00;99496.69;4927183;28;20047;-74
2021/12/28 01:30:55;;;;;;;47.78;29.27;;;;;;;4.01;100.00;99496.69;4895365;28;20058;-74
2021/12/28 01:33:20;;;;;;;46.72;30.58;;;;;;;4.05;100.00;99489.13;4925174;28;20039;-75
2021/12/28 01:35:46;;;;;;;41.97;28.65;;;;;;;3.97;100.00;99482.16;4925307;28;20041;-74
2021/12/28 01:38:11;;;;;;;45.03;29.17;;;;;;;3.98;100.00;99489.09;4911626;28;20757;-74
2021/12/28 01:40:41;;;;;;;46.92;30.17;;;;;;;4.12;100.00;99475.81;4926521;28;20038;-74
2021/12/28 01:43:16;;;;;;;47.80;30.90;;;;;;;4.11;100.00;99480.31;4910321;28;20101;-74
2021/12/28 01:46:02;;;;;;;44.45;31.05;;;;;;;4.17;100.00;99479.47;4926718;28;20752;-74
2021/12/28 01:48:31;;;;;;;51.30;32.03;;;;;;;4.19;100.00;99479.28;4918198;28;20038;-74
2021/12/28 01:51:19;;;;;;;51.58;33.67;;;;;;;4.25;100.00;99478.47;4916956;28;20065;-74
2021/12/28 01:53:46;;;;;;;53.58;31.95;;;;;;;4.33;100.00;99478.25;4927609;28;20109;-73
2021/12/28 01:56:14;;;;;;;56.65;34.67;;;;;;;4.35;100.00;99470.03;4908849;28;20047;-74
2021/12/28 01:58:40;;;;;;;52.97;33.88;;;;;;;4.33;100.00;99467.59;4925044;28;20023;-74
2021/12/28 02:01:06;;;;;;;55.38;32.92;;;;;;;4.36;100.00;99471.72;4908327;28;20538;-74
2021/12/28 02:03:33;;;;;;;53.78;34.78;;;;;;;4.27;100.00;99474.56;4924000;28;20046;-74
2021/12/28 02:05:58;;;;;;;53.38;35.20;;;;;;;4.25;100.00;99468.63;4923969;28;20038;-75
2021/12/28 02:08:24;;;;;;;55.80;35.55;;;;;;;4.37;100.00;99468.81;4911072;28;20046;-72
2021/12/28 02:10:52;;;;;;;50.03;32.83;;;;;;;4.39;100.00;99461.44;4923656;28;20031;-73
2021/12/28 02:13:18;;;;;;;58.60;36.92;;;;;;;4.43;100.00;99467.19;4910193;28;20046;-73
2021/12/28 02:15:44;;;;;;;58.85;36.45;;;;;;;4.46;100.00;99464.94;4925605;28;20027;-74
2021/12/28 02:18:11;;;;;;;58.17;38.53;;;;;;;4.45;100.00;99459.78;4924702;28;20043;-75
2021/12/28 02:20:38;;;;;;;61.58;38.40;;;;;;;4.39;100.00;99456.13;4910144;28;20074;-75
2021/12/28 02:23:04;;;;;;;63.83;40.72;;;;;;;4.47;100.00;99452.41;4924500;28;20034;-73
2021/12/28 02:25:31;;;;;;;65.75;38.80;;;;;;;4.48;100.00;99449.53;4907887;28;20063;-73
2021/12/28 02:27:57;;;;;;;77.63;41.83;;;;;;;4.48;100.00;99449.53;4923845;28;20102;-74
2021/12/28 02:30:23;;;;;;;71.13;41.40;;;;;;;4.48;100.00;99436.19;4921496;28;20026;-74
2021/12/28 02:32:49;;;;;;;75.05;42.97;;;;;;;4.54;100.00;99443.38;4915122;28;20057;-74
2021/12/28 02:35:18;;;;;;;82.93;42.55;;;;;;;4.50;100.00;99428.81;4926895;28;20047;-74
2021/12/28 02:37:44;;;;;;;75.70;43.63;;;;;;;4.59;100.00;99433.91;4910398;28;20065;-75
2021/12/28 02:40:15;;;;;;;85.82;44.08;;;;;;;4.61;100.00;99421.22;4926302;28;20493;-72
2021/12/28 02:42:41;;;;;;;79.22;44.75;;;;;;;4.61;100.00;99426.53;4920115;28;20034;-74
2021/12/28 02:45:12;;;;;;;88.95;44.42;;;;;;;4.63;100.00;99429.81;4914622;28;20133;-74
2021/12/28 02:47:39;;;;;;;102.22;46.38;;;;;;;4.64;100.00;99429.63;4924986;28;20152;-73
2021/12/28 02:50:09;;;;;;;116.35;45.67;;;;;;;4.65;100.00;99433.09;4908441;28;20089;-73
2021/12/28 02:52:39;;;;;;;107.55;47.00;;;;;;;4.70;100.00;99430.59;4923634;28;22847;-75
2021/12/28 02:55:08;;;;;;;101.50;47.28;;;;;;;4.68;100.00;99432.69;4920728;28;20455;-73
2021/12/28 02:57:34;;;;;;;107.93;48.72;;;;;;;4.69;100.00;99428.97;4914899;28;20058;-75
2021/12/28 02:59:59;;;;;;;109.80;49.65;;;;;;;4.71;100.00;99427.75;4893164;28;20928;-75
2021/12/28 03:02:25;;;;;;;102.18;48.08;;;;;;;4.73;100.00;99414.19;4908590;28;20058;-75
2021/12/28 03:04:50;;;;;;;149.80;51.30;;;;;;;4.81;100.00;99410.47;4924127;28;20061;-75
2021/12/28 03:07:16;;;;;;;100.43;47.80;;;;;;;4.80;100.00;99406.97;4920525;28;20049;-75
2021/12/28 03:09:41;;;;;;;131.98;48.20;;;;;;;4.82;100.00;99423.63;4911115;28;20051;-74
2021/12/28 03:12:08;;;;;;;106.32;47.97;;;;;;;4.87;100.00;99410.44;4921592;28;20051;-75
2021/12/28 03:14:33;;;;;;;190.57;51.80;;;;;;;4.80;100.00;99420.31;4904771;28;20134;-76
2021/12/28 03:16:59;;;;;;;142.48;46.17;;;;;;;4.77;100.00;99420.75;4924619;28;20073;-74
2021/12/28 03:19:24;;;;;;;125.68;47.35;;;;;;;4.74;100.00;99416.66;4932644;28;20046;-76
2021/12/28 03:21:50;;;;;;;163.85;51.13;;;;;;;4.69;100.00;99412.97;4914656;28;20050;-74
2021/12/28 03:24:17;;;;;;;143.70;50.50;;;;;;;4.65;100.00;99406.44;4939737;28;20055;-75
2021/12/28 03:26:42;;;;;;;97.65;48.58;;;;;;;4.72;100.00;99408.03;4892979;28;20057;-72
2021/12/28 03:29:08;;;;;;;125.53;50.10;;;;;;;4.80;100.00;99415.00;4925340;28;22614;-74
2021/12/28 03:31:34;;;;;;;117.03;53.20;;;;;;;4.78;100.00;99401.06;4907318;28;20042;-73
2021/12/28 03:33:59;;;;;;;148.63;54.45;;;;;;;4.85;100.00;99407.19;4923879;28;20031;-74
2021/12/28 03:36:28;;;;;;;118.38;53.65;;;;;;;4.92;100.00;99407.97;4924605;28;20118;-73
2021/12/28 03:38:54;;;;;;;115.43;52.38;;;;;;;4.92;100.00;99399.16;4915243;28;20086;-75
2021/12/28 03:41:21;;;;;;;154.55;56.95;;;;;;;4.90;100.00;99404.69;4911124;28;20062;-74
2021/12/28 03:43:49;;;;;;;133.40;53.05;;;;;;;4.94;100.00;99402.41;4912217;28;20050;-73
2021/12/28 03:46:15;;;;;;;121.22;53.78;;;;;;;4.94;100.00;99397.91;4927724;28;20066;-74
2021/12/28 03:48:40;;;;;;;115.65;54.38;;;;;;;4.97;100.00;99392.16;4928438;28;20149;-74
2021/12/28 03:51:06;;;;;;;138.23;57.22;;;;;;;4.98;100.00;99399.13;4910755;28;20050;-74
2021/12/28 03:53:33;;;;;;;119.47;57.47;;;;;;;4.99;100.00;99391.94;4928485;28;20049;-74
2021/12/28 03:55:59;;;;;;;111.40;55.47;;;;;;;5.02;100.00;99399.53;4892840;28;20057;-76
2021/12/28 03:58:24;;;;;;;126.03;54.85;;;;;;;5.00;100.00;99396.25;4925687;28;20027;-74
2021/12/28 04:00:50;;;;;;;106.65;55.10;;;;;;;5.08;100.00;99398.66;4928249;28;20663;-74
2021/12/28 04:03:16;;;;;;;130.57;57.33;;;;;;;5.01;100.00;99385.34;4911372;28;20047;-73
2021/12/28 04:05:44;;;;;;;151.13;60.75;;;;;;;4.97;100.00;99384.13;4926587;28;20088;-75
2021/12/28 04:08:10;;;;;;;134.55;57.08;;;;;;;5.10;100.00;99379.78;4912509;28;20048;-73
2021/12/28 04:10:51;;;;;;;123.63;54.15;;;;;;;5.06;100.00;99387.41;4926149;28;22532;-74
2021/12/28 04:13:17;;;;;;;135.07;55.65;;;;;;;5.02;100.00;99387.00;4920648;28;20035;-72
2021/12/28 04:15:43;;;;;;;124.35;56.28;;;;;;;5.06;100.00;99382.06;4916447;28;20046;-72
2021/12/28 04:18:08;;;;;;;132.30;57.17;;;;;;;5.05;100.00;99380.41;4928880;28;20502;-73
2021/12/28 04:20:34;;;;;;;134.75;57.97;;;;;;;5.11;100.00;99384.09;4911692;28;20167;-74
2021/12/28 04:22:59;;;;;;;126.55;54.60;;;;;;;5.12;100.00;99377.69;4928128;28;20042;-74
2021/12/28 04:25:25;;;;;;;130.35;55.95;;;;;;;5.17;100.00;99377.91;4922785;28;20082;-74
2021/12/28 04:27:50;;;;;;;163.32;58.85;;;;;;;5.17;100.00;99377.91;4918156;28;20502;-74
2021/12/28 04:30:16;;;;;;;136.18;58.03;;;;;;;5.19;100.00;99373.16;4928106;28;20086;-75
2021/12/28 04:32:43;;;;;;;126.55;56.50;;;;;;;5.22;100.00;99370.06;4910500;28;20047;-75
2021/12/28 04:35:10;;;;;;;128.18;55.88;;;;;;;5.26;100.00;99366.75;4926439;28;22409;-72
2021/12/28 04:37:35;;;;;;;170.25;57.38;;;;;;;5.29;100.00;99364.69;4923981;28;20093;-75
2021/12/28 04:40:01;;;;;;;153.30;59.05;;;;;;;5.25;100.00;99365.09;4917458;28;20622;-75
2021/12/28 04:42:29;;;;;;;133.38;57.63;;;;;;;5.26;100.00;99366.75;4926522;28;20027;-75
2021/12/28 04:44:54;;;;;;;145.85;57.55;;;;;;;5.30;100.00;99358.31;4908796;28;20059;-75
2021/12/28 04:47:20;;;;;;;162.93;60.35;;;;;;;5.33;100.00;99358.69;4926467;28;20103;-75
2021/12/28 04:49:46;;;;;;;153.70;57.05;;;;;;;5.31;100.00;99358.09;4919063;28;20050;-73
2021/12/28 04:52:13;;;;;;;139.02;55.97;;;;;;;5.32;100.00;99354.41;4916775;28;20054;-74
2021/12/28 04:54:38;;;;;;;161.52;57.80;;;;;;;5.34;100.00;99363.03;4926463;28;20034;-74
2021/12/28 04:57:05;;;;;;;209.55;59.05;;;;;;;5.34;100.00;99357.69;4910554;28;20171;-75
2021/12/28 04:59:31;;;;;;;180.10;54.58;;;;;;;5.39;100.00;99355.16;4924837;28;20027;-75
2021/12/28 05:01:57;;;;;;;190.52;55.30;;;;;;;5.38;100.00;99352.72;4934178;28;20078;-75
2021/12/28 05:04:22;;;;;;;137.85;51.63;;;;;;;5.34;100.00;99344.31;4922218;28;24183;-74
2021/12/28 05:06:48;;;;;;;130.88;51.05;;;;;;;5.38;100.00;99348.19;4926222;28;20046;-74
2021/12/28 05:09:15;;;;;;;172.32;53.22;;;;;;;5.33;100.00;99345.34;4910798;28;20062;-74
2021/12/28 05:11:41;;;;;;;247.88;57.40;;;;;;;5.29;100.00;99343.31;4926541;28;20042;-74
2021/12/28 05:14:08;;;;;;;177.82;54.08;;;;;;;5.31;100.00;99347.41;4913029;28;20043;-75
2021/12/28 05:16:34;;;;;;;154.90;53.60;;;;;;;5.31;100.00;99342.09;4910386;28;20038;-75
2021/12/28 05:19:02;;;;;;;170.52;52.35;;;;;;;5.26;100.00;99339.22;4926511;28;20085;-75
2021/12/28 05:21:28;;;;;;;220.68;56.92;;;;;;;5.25;100.00;99332.25;4910763;28;20047;-72
2021/12/28 05:23:53;;;;;;;157.77;51.55;;;;;;;5.23;100.00;99335.16;4925951;28;20047;-75
2021/12/28 05:26:19;;;;;;;169.25;52.72;;;;;;;5.26;100.00;99340.06;4910057;28;20047;-75
2021/12/28 05:28:44;;;;;;;214.70;53.35;;;;;;;5.22;100.00;99338.03;4927459;28;20023;-74
2021/12/28 05:31:10;;;;;;;122.43;50.28;;;;;;;5.28;100.00;99329.16;4906979;28;20026;-74
2021/12/28 05:33:36;;;;;;;166.32;49.95;;;;;;;5.25;100.00;99327.72;4908840;28;20058;-74
2021/12/28 05:36:02;;;;;;;126.63;49.00;;;;;;;5.21;100.00;99315.03;4925612;28;20532;-74
2021/12/28 05:38:27;;;;;;;160.57;47.95;;;;;;;5.18;100.00;99320.81;4893634;28;20587;-74
2021/12/28 05:40:53;;;;;;;170.82;50.70;;;;;;;5.21;100.00;99320.38;4925208;28;20035;-74
2021/12/28 05:43:18;;;;;;;146.70;48.30;;;;;;;5.15;100.00;99316.69;4926603;28;20039;-74
2021/12/28 05:45:44;;;;;;;167.43;49.30;;;;;;;5.18;100.00;99310.13;4909349;28;20058;-75
2021/12/28 05:48:10;;;;;;;195.57;48.95;;;;;;;5.15;100.00;99310.56;4924287;28;20032;-75
2021/12/28 05:50:35;;;;;;;118.20;43.22;;;;;;;5.15;100.00;99305.22;4891232;28;20051;-74
2021/12/28 05:53:01;;;;;;;183.70;47.97;;;;;;;5.11;100.00;99298.66;4909345;28;20035;-74
2021/12/28 05:55:26;;;;;;;227.48;47.30;;;;;;;5.05;100.00;99294.19;4925072;28;20037;-75
2021/12/28 05:57:52;;;;;;;175.80;46.75;;;;;;;5.00;100.00;99282.31;4908624;28;20057;-75
2021/12/28 06:00:17;;;;;;;145.15;45.15;;;;;;;5.03;100.00;99286.41;4924768;28;20310;-75
2021/12/28 06:02:45;;;;;;;127.90;44.97;;;;;;;5.03;100.00;99292.56;4910822;28;20063;-74
2021/12/28 06:05:10;;;;;;;114.45;44.53;;;;;;;5.03;100.00;99284.56;4925007;28;20039;-74
2021/12/28 06:07:36;;;;;;;129.38;46.03;;;;;;;5.02;100.00;99284.78;4922078;28;20040;-75
2021/12/28 06:10:04;;;;;;;120.82;46.28;;;;;;;5.02;100.00;99285.59;4909204;28;24003;-75
2021/12/28 06:12:29;;;;;;;122.30;46.40;;;;;;;4.97;100.00;99276.59;4924198;28;20647;-74
2021/12/28 06:14:55;;;;;;;100.55;43.40;;;;;;;4.97;100.00;99287.25;4911401;28;20054;-75
2021/12/28 06:17:21;;;;;;;107.15;44.80;;;;;;;4.93;100.00;99276.19;4924900;28;20042;-75
2021/12/28 06:19:47;;;;;;;101.95;42.58;;;;;;;4.92;100.00;99279.91;4918681;28;20035;-75
2021/12/28 06:22:12;;;;;;;95.07;43.85;;;;;;;4.95;100.00;99286.63;4914698;28;20066;-75
2021/12/28 06:24:38;;;;;;;99.13;45.20;;;;;;;4.91;100.00;99286.25;4924422;28;20177;-74
2021/12/28 06:27:04;;;;;;;90.53;43.38;;;;;;;4.89;100.00;99284.84;4908278;28;20061;-73
2021/12/28 06:29:29;;;;;;;92.85;42.88;;;;;;;4.86;100.00;99277.28;4926754;28;20109;-73
2021/12/28 06:31:54;;;;;;;95.70;42.95;;;;;;;4.85;100.00;99273.78;4918794;28;20042;-73
2021/12/28 06:34:20;;;;;;;91.93;41.17;;;;;;;4.82;100.00;99279.53;4915928;28;20058;-72
2021/12/28 06:36:45;;;;;;;97.55;44.22;;;;;;;4.88;100.00;99278.69;4924454;28;20073;-73
2021/12/28 06:39:11;;;;;;;104.32;43.28;;;;;;;4.85;100.00;99272.97;4908486;28;20059;-72
2021/12/28 06:41:38;;;;;;;98.72;42.70;;;;;;;4.89;100.00;99266.97;4923649;28;20499;-72
2021/12/28 06:44:05;;;;;;;93.72;44.08;;;;;;;4.89;100.00;99275.00;4919015;28;20070;-73
2021/12/28 06:46:30;;;;;;;102.40;44.75;;;;;;;4.90;100.00;99276.63;4916427;28;20050;-73
2021/12/28 06:48:56;;;;;;;97.55;43.08;;;;;;;4.89;100.00;99264.31;4907984;28;20467;-73
2021/12/28 06:51:21;;;;;;;97.82;41.45;;;;;;;4.88;100.00;99268.03;4911184;28;20094;-73
2021/12/28 06:53:47;;;;;;;100.10;43.45;;;;;;;4.84;100.00;99266.78;4925183;28;20038;-73
2021/12/28 06:56:12;;;;;;;106.53;43.63;;;;;;;4.80;100.00;99265.59;4915572;28;20046;-73
2021/12/28 06:58:40;;;;;;;98.75;42.67;;;;;;;4.83;100.00;99265.16;4914589;28;20082;-74
2021/12/28 07:01:06;;;;;;;98.03;42.50;;;;;;;4.86;100.00;99264.75;4924099;28;20053;-73
2021/12/28 07:03:32;;;;;;;109.95;44.80;;;;;;;4.85;100.00;99262.31;4910163;28;20058;-74
2021/12/28 07:05:57;;;;;;;102.88;43.10;;;;;;;4.86;100.00;99256.72;4924179;28;20172;-74
2021/12/28 07:08:23;;;;;;;103.05;46.20;;;;;;;4.86;100.00;99246.06;4918302;28;20053;-74
2021/12/28 07:10:48;;;;;;;97.93;42.47;;;;;;;4.86;100.00;99232.72;4912146;28;20082;-75
2021/12/28 07:13:14;;;;;;;100.80;44.70;;;;;;;4.85;100.00;99239.09;4928210;28;20051;-75
2021/12/28 07:15:39;;;;;;;93.95;42.72;;;;;;;4.91;100.00;99235.56;4913101;28;20058;-75
2021/12/28 07:18:05;;;;;;;89.53;41.88;;;;;;;4.89;100.00;99232.31;4927974;28;20045;-74
2021/12/28 07:20:30;;;;;;;84.85;40.90;;;;;;;4.89;100.00;99226.16;4921318;28;20635;-74
2021/12/28 07:22:56;;;;;;;89.18;39.92;;;;;;;4.83;100.00;99225.16;4919527;28;20991;-74
2021/12/28 07:25:21;;;;;;;83.65;39.92;;;;;;;4.87;100.00;99217.53;4928333;28;20062;-73
2021/12/28 07:27:47;;;;;;;90.50;40.45;;;;;;;4.85;100.00;99215.09;4912673;28;20050;-74
2021/12/28 07:30:13;;;;;;;87.75;39.50;;;;;;;4.84;100.00;99215.28;4927924;28;20023;-73
2021/12/28 07:32:39;;;;;;;86.50;39.25;;;;;;;4.95;100.00;99218.09;4920377;28;20521;-74
2021/12/28 07:35:07;;;;;;;78.25;38.20;;;;;;;5.05;100.00;99214.13;4916734;28;20059;-73
2021/12/28 07:37:33;;;;;;;78.82;38.13;;;;;;;5.06;100.00;99221.13;4927283;28;20035;-73
2021/12/28 07:39:58;;;;;;;85.47;37.78;;;;;;;5.03;100.00;99215.16;4909278;28;20094;-73
2021/12/28 07:42:23;;;;;;;76.57;37.35;;;;;;;5.05;100.00;99214.94;4924244;28;20114;-73
2021/12/28 07:44:49;;;;;;;70.00;35.22;;;;;;;5.08;100.00;99211.84;4900955;28;20186;-73
2021/12/28 07:47:15;;;;;;;67.95;33.88;;;;;;;5.05;100.00;99209.59;4919121;28;20050;-73
2021/12/28 07:49:41;;;;;;;64.28;33.60;;;;;;;5.08;100.00;99203.81;4926967;28;20114;-73
2021/12/28 07:52:07;;;;;;;69.40;33.03;;;;;;;5.11;100.00;99205.25;4907924;28;20092;-72
2021/12/28 07:54:32;;;;;;;69.00;33.35;;;;;;;5.07;100.00;99196.06;4925518;28;20141;-73
2021/12/28 07:56:58;;;;;;;64.32;32.50;;;;;;;5.14;100.00;99194.16;4911211;28;20046;-72
2021/12/28 07:59:23;;;;;;;61.25;30.42;;;;;;;5.10;100.00;99190.28;4927010;28;20035;-73
2021/12/28 08:01:49;;;;;;;57.03;29.88;;;;;;;5.07;100.00;99186.19;4922068;28;20045;-73
2021/12/28 08:04:14;;;;;;;59.70;29.60;;;;;;;5.05;100.00;99187.44;4925715;28;20050;-74
2021/12/28 08:06:39;;;;;;;52.30;29.23;;;;;;;5.06;100.00;99175.75;4940220;28;20059;-74
2021/12/28 08:09:05;;;;;;;59.28;30.38;;;;;;;5.07;100.00;99177.38;4909862;28;20192;-75
2021/12/28 08:11:31;;;;;;;59.20;28.98;;;;;;;5.06;100.00;99183.75;4926354;28;20570;-75
2021/12/28 08:13:56;;;;;;;55.78;28.10;;;;;;;5.10;100.00;99184.94;4928050;28;20063;-75
2021/12/28 08:16:22;;;;;;;55.97;28.27;;;;;;;5.16;100.00;99184.06;4911304;28;20506;-75
2021/12/28 08:18:47;;;;;;;60.63;28.88;;;;;;;5.24;100.00;99183.78;4939443;28;20049;-75
2021/12/28 08:21:13;;;;;;;46.30;24.98;;;;;;;5.28;100.00;99184.19;4910413;28;20065;-75
2021/12/28 08:23:38;;;;;;;51.03;24.88;;;;;;;5.25;100.00;99180.09;4922722;28;20039;-75
2021/12/28 08:26:04;;;;;;;44.60;24.42;;;;;;;5.32;100.00;99180.84;4924416;28;20051;-74
2021/12/28 08:28:29;;;;;;;41.97;22.85;;;;;;;5.37;100.00;99170.34;4907440;28;20066;-74
2021/12/28 08:30:56;;;;;;;43.75;21.60;;;;;;;5.42;100.00;99178.50;4926652;28;20039;-74
2021/12/28 08:33:23;;;;;;;47.38;21.98;;;;;;;5.50;100.00;99178.19;4913029;28;20050;-75
2021/12/28 08:35:48;;;;;;;49.03;20.40;;;;;;;5.53;100.00;99174.28;4928447;28;20141;-74
2021/12/28 08:38:14;;;;;;;44.63;20.85;;;;;;;5.59;100.00;99176.06;4925965;28;20039;-74
2021/12/28 08:40:41;;;;;;;45.60;20.70;;;;;;;5.62;100.00;99177.50;4911570;28;20055;-74
2021/12/28 08:43:07;;;;;;;43.08;19.23;;;;;;;5.54;100.00;99164.41;4927983;28;20031;-75
2021/12/28 08:45:33;;;;;;;36.88;17.15;;;;;;;5.57;100.00;99161.28;4910672;28;20051;-75
2021/12/28 08:47:58;;;;;;;45.65;20.17;;;;;;;5.55;100.00;99160.72;4928083;28;20113;-74
2021/12/28 08:50:24;;;;;;;38.28;16.48;;;;;;;5.52;100.00;99155.81;4925717;28;20042;-74
2021/12/28 08:52:50;;;;;;;34.03;16.85;;;;;;;5.50;100.00;99154.16;4912308;28;20059;-74
2021/12/28 08:55:18;;;;;;;33.97;17.20;;;;;;;5.48;100.00;99153.59;4926229;28;20062;-74
2021/12/28 08:57:43;;;;;;;37.10;15.80;;;;;;;5.49;100.00;99147.19;4913630;28;20059;-74
2021/12/28 09:00:23;;;;;;;38.92;15.25;;;;;;;5.52;100.00;99150.47;4927289;28;20035;-74
2021/12/28 09:02:50;;;;;;;32.45;15.85;;;;;;;5.61;100.00;99154.47;4924189;28;20122;-75
2021/12/28 09:05:15;;;;;;;42.20;15.27;;;;;;;5.68;100.00;99149.88;4918632;28;20063;-74
2021/12/28 09:07:41;;;;;;;32.08;14.52;;;;;;;5.74;100.00;99138.31;4928101;28;20034;-73
2021/12/28 09:10:07;;;;;;;31.90;15.27;;;;;;;5.80;100.00;99141.94;4909025;28;20055;-73
2021/12/28 09:12:32;;;;;;;58.00;28.95;;;;;;;5.95;100.00;99140.53;4924854;28;20109;-73
2021/12/28 09:14:58;;;;;;;65.15;25.92;;;;;;;6.05;100.00;99139.22;4921363;28;20536;-72
2021/12/28 09:17:24;;;;;;;37.58;15.00;;;;;;;6.05;100.00;99131.19;4915757;28;20656;-75
2021/12/28 09:19:49;;;;;;;43.05;15.38;;;;;;;6.08;100.00;99138.75;4924773;28;20053;-74
2021/12/28 09:22:15;;;;;;;30.98;15.23;;;;;;;6.36;100.00;99138.19;4911088;28;20057;-73
2021/12/28 09:24:41;;;;;;;32.00;13.02;;;;;;;6.61;100.00;99132.69;4925199;28;20062;-73
2021/12/28 09:27:07;;;;;;;26.67;11.73;;;;;;;6.59;100.00;99142.78;4920269;28;20519;-74
2021/12/28 09:29:32;;;;;;;29.92;11.43;;;;;;;6.73;100.00;99135.38;4916254;28;20062;-74
2021/12/28 09:31:59;;;;;;;25.33;10.00;;;;;;;7.27;100.00;99136.97;4925086;28;20587;-74
2021/12/28 09:34:26;;;;;;;33.03;9.98;;;;;;;7.35;100.00;99133.13;4910941;28;20081;-74
2021/12/28 09:36:52;;;;;;;28.05;9.13;;;;;;;6.98;100.00;99127.97;4922722;28;20038;-73
2021/12/28 09:39:22;;;;;;;25.33;8.60;;;;;;;6.66;100.00;99135.47;4920646;28;20055;-74
2021/12/28 09:41:52;;;;;;;31.05;9.85;;;;;;;6.52;100.00;99128.69;4916590;28;20047;-74
2021/12/28 09:44:18;;;;;;;29.45;11.05;;;;;;;6.51;100.00;99133.22;4926323;28;20038;-72
2021/12/28 09:46:43;;;;;;;24.48;8.80;;;;;;;6.37;100.00;99132.59;4906731;28;21261;-72
2021/12/28 09:49:08;;;;;;;25.10;9.50;;;;;;;6.36;100.00;99130.16;4925425;28;20038;-72
2021/12/28 09:51:34;;;;;;;30.52;10.20;;;;;;;6.30;100.00;99115.03;4920208;28;20043;-74
2021/12/28 09:54:00;;;;;;;23.60;9.98;;;;;;;6.21;100.00;99122.53;4915318;28;20525;-74
2021/12/28 09:56:26;;;;;;;23.35;8.98;;;;;;;6.18;100.00;99112.31;4924542;28;20047;-74
2021/12/28 09:58:51;;;;;;;26.60;9.68;;;;;;;6.16;100.00;99109.03;4909680;28;20499;-74
2021/12/28 10:01:20;;;;;;;26.00;10.45;;;;;;;6.17;100.00;99114.16;4922278;28;20035;-73
2021/12/28 10:03:45;;;;;;;26.02;10.18;;;;;;;6.16;100.00;99109.03;4918337;28;20053;-74
2021/12/28 10:06:16;;;;;;;25.02;10.35;;;;;;;6.28;100.00;99101.03;4915917;28;20507;-73
2021/12/28 10:08:42;;;;;;;22.77;9.43;;;;;;;6.30;100.00;99091.75;4924760;28;20038;-72
2021/12/28 10:11:08;;;;;;;25.30;8.88;;;;;;;6.31;100.00;99085.38;4907928;28;20496;-73
2021/12/28 10:13:33;;;;;;;24.52;9.38;;;;;;;6.28;100.00;99076.97;4924270;28;20058;-72
2021/12/28 10:16:00;;;;;;;37.83;9.95;;;;;;;6.26;100.00;99074.56;4908897;28;20043;-73
2021/12/28 10:18:27;;;;;;;23.83;10.07;;;;;;;6.27;100.00;99070.81;4923497;28;20023;-74
2021/12/28 10:20:55;;;;;;;20.20;8.63;;;;;;;6.26;100.00;99069.19;4925301;28;20039;-74
2021/12/28 10:23:25;;;;;;;27.95;9.95;;;;;;;6.35;100.00;99059.81;4912228;28;20502;-75
2021/12/28 10:25:56;;;;;;;33.22;10.00;;;;;;;6.40;100.00;99067.16;4926184;28;20137;-73
2021/12/28 10:28:31;;;;;;;25.38;9.15;;;;;;;6.47;100.00;99054.50;4911739;28;20054;-75
2021/12/28 10:31:02;;;;;;;29.33;9.52;;;;;;;6.54;100.00;99046.34;4922388;28;20038;-73
2021/12/28 10:33:29;;;;;;;29.83;9.70;;;;;;;6.65;100.00;99051.72;4917280;28;20030;-74
2021/12/28 10:35:58;;;;;;;33.63;10.32;;;;;;;6.71;100.00;99044.63;4916991;28;20068;-74
2021/12/28 10:38:31;;;;;;;33.05;9.10;;;;;;;6.72;100.00;99032.88;4907067;28;20510;-74
2021/12/28 10:41:00;;;;;;;31.40;8.00;;;;;;;6.76;100.00;99036.72;4909539;28;20140;-73
2021/12/28 10:43:30;;;;;;;28.27;9.13;;;;;;;6.81;100.00;99041.38;4921782;28;21157;-72
2021/12/28 10:46:05;;;;;;;25.20;8.65;;;;;;;6.84;100.00;99028.34;4898938;28;20500;-73
2021/12/28 10:48:35;;;;;;;23.67;8.32;;;;;;;6.82;100.00;99022.41;4921075;28;20042;-73
2021/12/28 10:51:06;;;;;;;27.27;9.13;;;;;;;6.87;100.00;99008.31;4921308;28;20699;-70
2021/12/28 10:56:40;;;;;;;27.90;8.35;;;;;;;6.81;100.00;99006.56;4924302;28;20038;-72
2021/12/28 10:59:07;;;;;;;26.80;7.93;;;;;;;6.78;100.00;98993.69;4904311;28;20113;-72
2021/12/28 11:01:35;;;;;;;21.15;7.95;;;;;;;6.75;100.00;98989.59;4921850;28;20034;-73
2021/12/28 11:04:08;;;;;;;22.38;8.50;;;;;;;6.74;100.00;98987.16;4915954;28;20055;-73
2021/12/28 11:06:39;;;;;;;30.13;9.43;;;;;;;6.72;100.00;98987.38;4913509;28;20437;-74
2021/12/28 11:09:07;;;;;;;23.38;8.60;;;;;;;6.73;100.00;98985.53;4920156;28;20033;-73
2021/12/28 11:11:33;;;;;;;31.30;9.15;;;;;;;6.73;100.00;98980.97;4908477;28;20054;-73
2021/12/28 11:14:12;;;;;;;29.45;9.77;;;;;;;6.73;100.00;98980.16;4909713;28;20047;-73
2021/12/28 11:16:38;;;;;;;28.75;10.38;;;;;;;6.74;100.00;98971.94;4926668;28;20546;-73